Time;durP1;ratioP1;P1;durP2;ratioP2;P2;SDS_P1;SDS_P2;PMS_P1;PMS_P2;Temp;Humidity;BMP_temperature;BMP_pressure;BME280_temperature;BME280_humidity;BME280_pressure;Samples;Min_cycle;Max_cycle;Signal;HPM_P1;HPM_P2
2023/11/18 00:00:23;;;;;;;0.98;0.80;;;;;;;;;;4999867;28;20015;-78
2023/11/18 00:02:50;;;;;;;0.80;0.80;;;;;;;;;;4998259;28;20032;-79
2023/11/18 00:05:16;;;;;;;0.70;0.70;;;;;;;;;;5000309;28;20074;-78
2023/11/18 00:07:42;;;;;;;0.80;0.80;;;;;;;;;;4999902;28;20041;-79
2023/11/18 00:10:08;;;;;;;1.15;1.05;;;;;;;;;;4983885;28;20078;-79
2023/11/18 00:12:35;;;;;;;1.00;0.90;;;;;;;;;;4983235;28;20023;-79
2023/11/18 00:15:03;;;;;;;0.80;0.80;;;;;;;;;;4999639;28;20540;-79
2023/11/18 00:17:29;;;;;;;0.98;0.80;;;;;;;;;;4982916;28;20034;-78
2023/11/18 00:19:56;;;;;;;0.98;0.82;;;;;;;;;;5004920;28;20097;-78
2023/11/18 00:22:22;;;;;;;0.98;0.88;;;;;;;;;;4969919;28;20027;-79
2023/11/18 00:24:48;;;;;;;0.63;0.63;;;;;;;;;;4982623;28;20094;-78
2023/11/18 00:27:14;;;;;;;0.80;0.80;;;;;;;;;;4982739;28;20497;-79
2023/11/18 00:29:41;;;;;;;0.90;0.80;;;;;;;;;;4983349;28;20125;-78
2023/11/18 00:32:07;;;;;;;1.15;0.98;;;;;;;;;;4982967;28;20053;-79
2023/11/18 00:34:33;;;;;;;1.00;0.90;;;;;;;;;;4997805;28;20032;-79
2023/11/18 00:37:00;;;;;;;1.00;0.80;;;;;;;;;;5001028;28;20038;-78
2023/11/18 00:39:26;;;;;;;0.80;0.73;;;;;;;;;;4983630;28;20041;-79
2023/11/18 00:41:53;;;;;;;0.68;0.68;;;;;;;;;;4979221;28;20026;-78
2023/11/18 00:44:19;;;;;;;0.80;0.80;;;;;;;;;;5017772;28;20124;-78
2023/11/18 00:46:45;;;;;;;0.93;0.80;;;;;;;;;;5006966;28;20101;-76
2023/11/18 00:49:11;;;;;;;0.95;0.88;;;;;;;;;;5000291;28;20061;-77
2023/11/18 00:51:38;;;;;;;1.00;1.00;;;;;;;;;;4984028;28;20478;-76
2023/11/18 00:54:07;;;;;;;0.88;0.77;;;;;;;;;;5005494;28;20366;-77
2023/11/18 00:56:33;;;;;;;0.80;0.80;;;;;;;;;;5014162;28;20052;-78
2023/11/18 00:59:01;;;;;;;1.13;1.00;;;;;;;;;;5003582;28;20378;-77
2023/11/18 01:01:27;;;;;;;0.80;0.80;;;;;;;;;;5008066;28;20093;-77
2023/11/18 01:03:53;;;;;;;0.65;0.65;;;;;;;;;;4986289;28;20057;-77
2023/11/18 01:06:20;;;;;;;0.70;0.70;;;;;;;;;;4981943;28;20038;-77
2023/11/18 01:08:49;;;;;;;0.80;0.80;;;;;;;;;;4999084;28;20122;-77
2023/11/18 01:11:19;;;;;;;0.88;0.80;;;;;;;;;;5001532;28;20105;-78
2023/11/18 01:13:49;;;;;;;3.22;1.92;;;;;;;;;;4982769;28;20100;-76
2023/11/18 01:16:16;;;;;;;1.00;0.90;;;;;;;;;;4985659;28;20048;-79
2023/11/18 01:18:42;;;;;;;1.00;0.90;;;;;;;;;;4987164;28;20026;-78
2023/11/18 01:21:09;;;;;;;0.77;0.77;;;;;;;;;;4985588;28;20117;-78
2023/11/18 01:23:42;;;;;;;0.70;0.68;;;;;;;;;;5002411;28;20085;-77
2023/11/18 01:26:08;;;;;;;;;;;;;;;;;;5001699;28;20018;-76
2023/11/18 01:28:41;;;;;;;0.70;0.70;;;;;;;;;;4985228;28;19941;-78
2023/11/18 01:31:10;;;;;;;0.80;0.80;;;;;;;;;;4984004;28;20022;-78
2023/11/18 01:33:37;;;;;;;0.70;0.70;;;;;;;;;;4982537;28;20394;-78
2023/11/18 01:36:10;;;;;;;0.90;0.80;;;;;;;;;;4985553;28;20026;-79
2023/11/18 01:38:40;;;;;;;1.10;1.00;;;;;;;;;;4985632;28;20026;-79
2023/11/18 01:41:06;;;;;;;0.80;0.70;;;;;;;;;;4986457;28;20390;-79
2023/11/18 01:43:32;;;;;;;1.30;1.20;;;;;;;;;;4984822;28;20022;-77
2023/11/18 01:46:07;;;;;;;1.60;1.00;;;;;;;;;;4981314;28;20026;-77
2023/11/18 01:48:33;;;;;;;0.70;0.70;;;;;;;;;;4998004;28;20378;-77
2023/11/18 01:50:59;;;;;;;0.80;0.80;;;;;;;;;;4996388;28;20025;-77
2023/11/18 01:53:26;;;;;;;0.90;0.80;;;;;;;;;;4978500;28;20505;-78
2023/11/18 01:55:53;;;;;;;0.88;0.80;;;;;;;;;;4978989;28;20031;-78
2023/11/18 01:58:19;;;;;;;0.93;0.88;;;;;;;;;;4982629;28;20557;-79
2023/11/18 02:00:59;;;;;;;0.85;0.80;;;;;;;;;;4986543;28;20053;-78
2023/11/18 02:03:32;;;;;;;1.10;0.90;;;;;;;;;;5006667;28;20041;-79
2023/11/18 02:05:59;;;;;;;1.10;0.80;;;;;;;;;;5008200;28;20036;-77
2023/11/18 02:08:25;;;;;;;0.80;0.80;;;;;;;;;;5001154;28;20026;-78
2023/11/18 02:11:00;;;;;;;0.70;0.70;;;;;;;;;;4998901;28;20038;-79
2023/11/18 02:13:36;;;;;;;0.70;0.70;;;;;;;;;;5001363;28;20022;-78
2023/11/18 02:16:04;;;;;;;0.63;0.63;;;;;;;;;;5001116;28;20041;-78
2023/11/18 02:18:31;;;;;;;0.70;0.70;;;;;;;;;;5000316;28;20032;-78
2023/11/18 02:20:57;;;;;;;1.10;0.90;;;;;;;;;;4999084;28;20024;-78
2023/11/18 02:23:24;;;;;;;0.65;0.63;;;;;;;;;;4981820;28;20034;-78
2023/11/18 02:25:50;;;;;;;0.70;0.70;;;;;;;;;;4982399;28;20026;-78
2023/11/18 02:28:16;;;;;;;1.52;1.23;;;;;;;;;;4981904;28;20092;-78
2023/11/18 02:30:43;;;;;;;1.00;0.90;;;;;;;;;;4981205;28;20109;-78
2023/11/18 02:33:18;;;;;;;0.80;0.77;;;;;;;;;;4999035;28;20033;-78
2023/11/18 02:36:02;;;;;;;0.93;0.90;;;;;;;;;;4981456;28;20027;-79
2023/11/18 02:38:36;;;;;;;1.13;1.02;;;;;;;;;;4981238;28;20026;-78
2023/11/18 02:41:08;;;;;;;0.98;0.88;;;;;;;;;;4999041;28;20065;-79
2023/11/18 02:43:35;;;;;;;0.80;0.80;;;;;;;;;;4982322;28;20129;-78
2023/11/18 02:46:02;;;;;;;0.80;0.80;;;;;;;;;;4981099;28;20482;-78
2023/11/18 02:48:28;;;;;;;0.70;0.70;;;;;;;;;;4980711;28;20034;-78
2023/11/18 02:50:54;;;;;;;0.70;0.70;;;;;;;;;;4980927;28;20485;-79
2023/11/18 02:53:21;;;;;;;0.98;0.80;;;;;;;;;;4998358;28;20069;-78
2023/11/18 02:55:47;;;;;;;0.80;0.80;;;;;;;;;;4999370;28;20101;-79
2023/11/18 02:58:13;;;;;;;0.85;0.80;;;;;;;;;;4981872;28;20031;-78
2023/11/18 03:00:39;;;;;;;0.77;0.77;;;;;;;;;;4999609;28;20049;-78
2023/11/18 03:03:05;;;;;;;0.85;0.73;;;;;;;;;;4998328;28;20470;-77
2023/11/18 03:05:31;;;;;;;0.73;0.73;;;;;;;;;;4982206;28;20023;-78
2023/11/18 03:07:58;;;;;;;0.82;0.82;;;;;;;;;;5000040;28;20097;-78
2023/11/18 03:10:24;;;;;;;0.70;0.70;;;;;;;;;;4999005;28;20022;-78
2023/11/18 03:12:52;;;;;;;0.82;0.80;;;;;;;;;;4999640;28;20049;-77
2023/11/18 03:15:19;;;;;;;0.50;0.50;;;;;;;;;;4999103;28;20478;-79
2023/11/18 03:17:54;;;;;;;0.80;0.80;;;;;;;;;;4981148;28;20046;-76
2023/11/18 03:20:22;;;;;;;0.60;0.60;;;;;;;;;;4998585;28;20023;-76
2023/11/18 03:22:49;;;;;;;1.00;0.90;;;;;;;;;;4980113;28;20050;-79
2023/11/18 03:25:16;;;;;;;1.02;0.93;;;;;;;;;;4981221;28;20026;-78
2023/11/18 03:27:43;;;;;;;0.80;0.80;;;;;;;;;;4999467;28;20114;-77
2023/11/18 03:30:09;;;;;;;0.80;0.80;;;;;;;;;;5000864;28;20034;-80
2023/11/18 03:32:36;;;;;;;0.65;0.65;;;;;;;;;;4999137;28;20022;-77
2023/11/18 03:35:09;;;;;;;0.80;0.80;;;;;;;;;;4981699;28;20073;-76
2023/11/18 03:37:35;;;;;;;;;;;;;;;;;;4999753;28;20031;-77
2023/11/18 03:40:01;;;;;;;0.80;0.77;;;;;;;;;;4999969;28;19914;-77
2023/11/18 03:42:29;;;;;;;0.70;0.70;;;;;;;;;;4999770;28;20466;-76
2023/11/18 03:44:55;;;;;;;0.73;0.73;;;;;;;;;;4981432;28;20026;-76
2023/11/18 03:47:23;;;;;;;0.68;0.68;;;;;;;;;;4998823;28;20057;-76
2023/11/18 03:49:50;;;;;;;0.80;0.80;;;;;;;;;;4998321;28;20033;-77
2023/11/18 03:52:16;;;;;;;1.02;0.90;;;;;;;;;;4979912;28;20049;-77
2023/11/18 03:54:43;;;;;;;0.60;0.60;;;;;;;;;;4981195;28;20030;-77
2023/11/18 03:57:09;;;;;;;1.10;0.85;;;;;;;;;;4998162;28;20037;-76
2023/11/18 03:59:35;;;;;;;0.80;0.80;;;;;;;;;;4996796;28;20038;-77
2023/11/18 04:02:01;;;;;;;0.70;0.70;;;;;;;;;;4979898;28;20109;-76
2023/11/18 04:04:27;;;;;;;0.70;0.70;;;;;;;;;;4979932;28;20061;-77
2023/11/18 04:06:53;;;;;;;0.60;0.60;;;;;;;;;;4979456;28;20481;-76
2023/11/18 04:09:20;;;;;;;0.70;0.70;;;;;;;;;;4997598;28;20042;-77
2023/11/18 04:11:46;;;;;;;0.60;0.60;;;;;;;;;;4981111;28;20165;-77
2023/11/18 04:14:12;;;;;;;0.70;0.70;;;;;;;;;;4997866;28;20026;-78
2023/11/18 04:16:38;;;;;;;0.70;0.70;;;;;;;;;;4997345;28;20026;-77
2023/11/18 04:19:06;;;;;;;0.60;0.60;;;;;;;;;;4979412;28;20113;-76
2023/11/18 04:21:32;;;;;;;1.02;0.82;;;;;;;;;;4997313;28;20382;-77
2023/11/18 04:23:58;;;;;;;0.80;0.80;;;;;;;;;;4980271;28;20026;-76
2023/11/18 04:26:24;;;;;;;0.63;0.63;;;;;;;;;;4979172;28;20026;-77
2023/11/18 04:28:50;;;;;;;0.93;0.93;;;;;;;;;;4979129;28;20037;-77
2023/11/18 04:31:16;;;;;;;1.00;0.90;;;;;;;;;;4978884;28;20532;-76
2023/11/18 04:33:42;;;;;;;0.82;0.70;;;;;;;;;;4979308;28;20022;-77
2023/11/18 04:36:10;;;;;;;0.80;0.80;;;;;;;;;;4979471;28;20437;-77
2023/11/18 04:38:36;;;;;;;0.80;0.80;;;;;;;;;;4996758;28;20031;-76
2023/11/18 04:41:03;;;;;;;0.88;0.80;;;;;;;;;;4979560;28;20046;-76
2023/11/18 04:43:29;;;;;;;0.82;0.80;;;;;;;;;;4979695;28;20054;-77
2023/11/18 04:45:56;;;;;;;0.82;0.73;;;;;;;;;;4979117;28;20031;-77
2023/11/18 04:48:22;;;;;;;0.90;0.80;;;;;;;;;;4999287;28;20030;-77
2023/11/18 04:50:48;;;;;;;0.70;0.70;;;;;;;;;;5001798;28;20022;-76
2023/11/18 04:53:14;;;;;;;0.70;0.70;;;;;;;;;;4998536;28;20047;-77
2023/11/18 04:55:40;;;;;;;0.70;0.70;;;;;;;;;;4996163;28;20022;-77
2023/11/18 04:58:06;;;;;;;0.95;0.80;;;;;;;;;;4978594;28;20049;-76
2023/11/18 05:00:38;;;;;;;0.70;0.70;;;;;;;;;;4977818;28;20022;-76
2023/11/18 05:03:05;;;;;;;0.70;0.70;;;;;;;;;;4978159;28;20422;-76
2023/11/18 05:05:31;;;;;;;0.80;0.77;;;;;;;;;;4995724;28;20026;-76
2023/11/18 05:07:57;;;;;;;0.80;0.80;;;;;;;;;;4980857;28;20077;-75
2023/11/18 05:10:24;;;;;;;0.90;0.90;;;;;;;;;;4999031;28;20023;-75
2023/11/18 05:12:55;;;;;;;0.73;0.70;;;;;;;;;;4981098;28;20077;-76
2023/11/18 05:15:25;;;;;;;0.80;0.80;;;;;;;;;;4982721;28;20098;-75
2023/11/18 05:17:51;;;;;;;0.80;0.80;;;;;;;;;;4978514;28;20023;-76
2023/11/18 05:20:17;;;;;;;0.80;0.80;;;;;;;;;;4995144;28;20022;-77
2023/11/18 05:22:43;;;;;;;0.70;0.70;;;;;;;;;;4977972;28;20054;-76
2023/11/18 05:25:10;;;;;;;0.80;0.77;;;;;;;;;;4978285;28;20033;-77
2023/11/18 05:27:36;;;;;;;1.00;0.90;;;;;;;;;;4978649;28;20030;-76
2023/11/18 05:30:03;;;;;;;0.98;0.80;;;;;;;;;;4978267;28;20026;-77
2023/11/18 05:32:33;;;;;;;0.75;0.75;;;;;;;;;;4995700;28;20029;-76
2023/11/18 05:35:00;;;;;;;0.80;0.80;;;;;;;;;;4979228;28;20030;-77
2023/11/18 05:37:34;;;;;;;0.88;0.80;;;;;;;;;;4996060;28;20470;-76
2023/11/18 05:40:06;;;;;;;0.75;0.75;;;;;;;;;;4979232;28;20061;-77
2023/11/18 05:42:32;;;;;;;0.75;0.70;;;;;;;;;;4978746;28;20046;-77
2023/11/18 05:44:59;;;;;;;0.85;0.80;;;;;;;;;;4979037;28;20113;-76
2023/11/18 05:47:26;;;;;;;0.75;0.75;;;;;;;;;;4981751;28;20113;-77
2023/11/18 05:49:53;;;;;;;0.85;0.80;;;;;;;;;;4998862;28;20030;-76
2023/11/18 05:52:20;;;;;;;0.80;0.80;;;;;;;;;;4999529;28;20046;-76
2023/11/18 05:54:50;;;;;;;0.80;0.70;;;;;;;;;;4982906;28;20526;-76
2023/11/18 05:57:16;;;;;;;0.82;0.80;;;;;;;;;;4983521;28;20022;-77
2023/11/18 05:59:43;;;;;;;0.70;0.70;;;;;;;;;;4983697;28;20026;-77
2023/11/18 06:02:13;;;;;;;0.82;0.80;;;;;;;;;;4983408;28;20071;-77
2023/11/18 06:04:39;;;;;;;0.70;0.70;;;;;;;;;;4982443;28;20029;-76
2023/11/18 06:07:06;;;;;;;0.82;0.80;;;;;;;;;;4981849;28;20026;-76
2023/11/18 06:09:32;;;;;;;1.15;0.95;;;;;;;;;;4981422;28;20030;-77
2023/11/18 06:11:58;;;;;;;0.80;0.80;;;;;;;;;;4998866;28;20022;-76
2023/11/18 06:14:26;;;;;;;1.17;0.90;;;;;;;;;;4981756;28;20161;-76
2023/11/18 06:16:52;;;;;;;1.10;0.90;;;;;;;;;;4982085;28;20117;-76
2023/11/18 06:19:19;;;;;;;1.48;1.33;;;;;;;;;;4999182;28;20347;-76
2023/11/18 06:21:45;;;;;;;1.00;0.90;;;;;;;;;;4981395;28;20026;-76
2023/11/18 06:24:13;;;;;;;2.22;1.08;;;;;;;;;;4998350;28;20109;-76
2023/11/18 06:26:39;;;;;;;0.80;0.80;;;;;;;;;;4998432;28;20023;-76
2023/11/18 06:29:06;;;;;;;0.80;0.80;;;;;;;;;;4981367;28;20168;-77
2023/11/18 06:31:32;;;;;;;1.20;1.10;;;;;;;;;;4998188;28;20022;-76
2023/11/18 06:33:58;;;;;;;0.70;0.70;;;;;;;;;;4981228;28;20030;-77
2023/11/18 06:36:26;;;;;;;0.90;0.80;;;;;;;;;;4981001;28;20386;-76
2023/11/18 06:38:53;;;;;;;0.80;0.80;;;;;;;;;;4980615;28;20121;-76
2023/11/18 06:41:25;;;;;;;0.80;0.80;;;;;;;;;;4981428;28;20027;-77
2023/11/18 06:43:51;;;;;;;0.80;0.80;;;;;;;;;;4980649;28;20378;-76
2023/11/18 06:46:22;;;;;;;0.73;0.73;;;;;;;;;;4997428;28;20385;-76
2023/11/18 06:48:54;;;;;;;1.08;1.00;;;;;;;;;;4998051;28;20026;-76
2023/11/18 06:51:24;;;;;;;0.95;0.82;;;;;;;;;;4979990;28;20029;-76
2023/11/18 06:53:50;;;;;;;0.70;0.70;;;;;;;;;;4997952;28;20100;-76
2023/11/18 06:56:16;;;;;;;1.10;1.00;;;;;;;;;;4998053;28;20076;-76
2023/11/18 06:58:43;;;;;;;1.08;0.98;;;;;;;;;;4980740;28;20050;-76
2023/11/18 07:01:17;;;;;;;1.20;1.10;;;;;;;;;;4998953;28;20049;-77
2023/11/18 07:03:43;;;;;;;0.88;0.80;;;;;;;;;;4983691;28;20393;-76
2023/11/18 07:06:10;;;;;;;0.70;0.70;;;;;;;;;;4983471;28;20485;-77
2023/11/18 07:08:36;;;;;;;0.90;0.80;;;;;;;;;;4982644;28;20034;-77
2023/11/18 07:11:03;;;;;;;0.85;0.80;;;;;;;;;;4982239;28;20023;-77
2023/11/18 07:13:29;;;;;;;0.70;0.70;;;;;;;;;;4981448;28;20049;-76
2023/11/18 07:15:56;;;;;;;0.63;0.63;;;;;;;;;;4981701;28;20034;-77
2023/11/18 07:18:23;;;;;;;0.70;0.70;;;;;;;;;;4999704;28;20039;-76
2023/11/18 07:20:51;;;;;;;1.10;0.90;;;;;;;;;;4983495;28;20077;-76
2023/11/18 07:23:17;;;;;;;0.80;0.77;;;;;;;;;;4982019;28;20014;-77
2023/11/18 07:25:44;;;;;;;0.80;0.80;;;;;;;;;;4999083;28;20049;-77
2023/11/18 07:28:11;;;;;;;1.08;0.98;;;;;;;;;;4980511;28;20366;-77
2023/11/18 07:30:37;;;;;;;1.00;0.80;;;;;;;;;;4997788;28;20026;-77
2023/11/18 07:33:05;;;;;;;0.95;0.85;;;;;;;;;;4981250;28;20023;-77
2023/11/18 07:35:31;;;;;;;1.10;0.90;;;;;;;;;;4981354;28;20112;-77
2023/11/18 07:37:58;;;;;;;0.70;0.70;;;;;;;;;;4982051;28;20027;-77
2023/11/18 07:40:28;;;;;;;0.98;0.88;;;;;;;;;;4999416;28;20033;-76
2023/11/18 07:43:01;;;;;;;0.80;0.80;;;;;;;;;;4999107;28;20030;-77
2023/11/18 07:45:28;;;;;;;1.10;0.90;;;;;;;;;;4999099;28;20081;-76
2023/11/18 07:47:55;;;;;;;0.82;0.82;;;;;;;;;;4982913;28;20026;-77
2023/11/18 07:50:21;;;;;;;0.82;0.80;;;;;;;;;;4984507;28;20048;-76
2023/11/18 07:52:51;;;;;;;0.80;0.77;;;;;;;;;;4984060;28;20105;-77
2023/11/18 07:55:18;;;;;;;0.60;0.60;;;;;;;;;;4984218;28;20026;-76
2023/11/18 07:57:44;;;;;;;0.80;0.80;;;;;;;;;;5000180;28;20355;-77
2023/11/18 08:00:10;;;;;;;0.63;0.63;;;;;;;;;;5000466;28;20046;-77
2023/11/18 08:02:37;;;;;;;0.70;0.70;;;;;;;;;;5000406;28;20026;-77
2023/11/18 08:05:06;;;;;;;0.80;0.80;;;;;;;;;;4999454;28;20113;-77
2023/11/18 08:07:33;;;;;;;1.02;0.90;;;;;;;;;;4981500;28;20030;-76
2023/11/18 08:10:00;;;;;;;1.10;0.90;;;;;;;;;;4983027;28;20033;-77
2023/11/18 08:12:26;;;;;;;0.95;0.77;;;;;;;;;;4999796;28;20073;-77
2023/11/18 08:14:52;;;;;;;1.00;0.90;;;;;;;;;;4979858;28;20026;-76
2023/11/18 08:17:19;;;;;;;0.85;0.82;;;;;;;;;;4997411;28;20033;-76
2023/11/18 08:19:46;;;;;;;0.80;0.80;;;;;;;;;;4997177;28;20035;-76
2023/11/18 08:22:13;;;;;;;1.10;0.90;;;;;;;;;;4979856;28;20033;-77
2023/11/18 08:24:39;;;;;;;1.10;1.00;;;;;;;;;;4997298;28;20018;-77
2023/11/18 08:27:06;;;;;;;0.90;0.80;;;;;;;;;;4979484;28;20496;-76
2023/11/18 08:29:33;;;;;;;0.82;0.82;;;;;;;;;;4997158;28;20035;-76
2023/11/18 08:31:59;;;;;;;0.93;0.82;;;;;;;;;;4997352;28;20027;-76
2023/11/18 08:34:25;;;;;;;1.08;0.88;;;;;;;;;;4998791;28;20070;-77
2023/11/18 08:36:52;;;;;;;1.20;1.10;;;;;;;;;;5001044;28;20477;-77
2023/11/18 08:39:20;;;;;;;1.00;0.90;;;;;;;;;;4982410;28;20143;-77
2023/11/18 08:41:50;;;;;;;1.00;0.90;;;;;;;;;;4981779;28;20018;-77
2023/11/18 08:44:17;;;;;;;0.70;0.70;;;;;;;;;;4981906;28;20030;-77
2023/11/18 08:46:43;;;;;;;0.77;0.63;;;;;;;;;;4981482;28;20050;-79
2023/11/18 08:49:13;;;;;;;0.70;0.70;;;;;;;;;;4982316;28;20030;-79
2023/11/18 08:51:41;;;;;;;0.80;0.80;;;;;;;;;;5000748;28;20026;-77
2023/11/18 08:57:19;;;;;;;0.70;0.70;;;;;;;;;;4960181;28;20085;-77
2023/11/18 08:59:45;;;;;;;0.75;0.75;;;;;;;;;;4944563;29;20507;-77
2023/11/18 09:02:14;;;;;;;0.98;0.88;;;;;;;;;;4944087;29;20050;-78
2023/11/18 09:04:43;;;;;;;1.15;0.95;;;;;;;;;;4944458;29;20027;-77
2023/11/18 09:07:09;;;;;;;0.73;0.70;;;;;;;;;;4962655;29;20035;-77
2023/11/18 09:09:36;;;;;;;1.20;0.95;;;;;;;;;;4948105;29;20031;-77
2023/11/18 09:12:02;;;;;;;1.00;0.90;;;;;;;;;;4963430;29;20081;-77
2023/11/18 09:14:29;;;;;;;1.35;1.25;;;;;;;;;;4947174;29;20110;-76
2023/11/18 09:16:56;;;;;;;1.30;1.20;;;;;;;;;;4946174;29;20031;-77
2023/11/18 09:19:22;;;;;;;1.00;0.90;;;;;;;;;;4962777;29;20023;-77
2023/11/18 09:21:48;;;;;;;0.90;0.80;;;;;;;;;;4943647;29;20179;-76
2023/11/18 09:24:19;;;;;;;0.77;0.70;;;;;;;;;;4957894;29;20023;-76
2023/11/18 09:26:47;;;;;;;0.80;0.75;;;;;;;;;;4958693;29;20041;-77
2023/11/18 09:29:17;;;;;;;0.90;0.80;;;;;;;;;;4959780;29;20028;-77
2023/11/18 09:31:47;;;;;;;0.70;0.70;;;;;;;;;;4942828;29;20438;-78
2023/11/18 09:34:16;;;;;;;0.68;0.68;;;;;;;;;;4976362;28;20092;-77
2023/11/18 09:36:43;;;;;;;0.80;0.80;;;;;;;;;;4983151;28;20034;-77
2023/11/18 09:39:28;;;;;;;0.85;0.80;;;;;;;;;;4984103;28;20018;-77
2023/11/18 09:41:56;;;;;;;0.73;0.70;;;;;;;;;;4982660;28;20026;-77
2023/11/18 09:44:23;;;;;;;1.05;0.90;;;;;;;;;;4983446;28;20030;-77
2023/11/18 09:46:55;;;;;;;0.80;0.80;;;;;;;;;;5000516;28;20173;-77
2023/11/18 09:49:33;;;;;;;3.92;1.17;;;;;;;;;;4981481;28;20034;-77
2023/11/18 09:52:00;;;;;;;0.80;0.70;;;;;;;;;;5000098;28;20042;-76
2023/11/18 09:54:45;;;;;;;0.68;0.68;;;;;;;;;;5000524;28;20089;-76
2023/11/18 09:57:30;;;;;;;0.70;0.70;;;;;;;;;;4983167;28;20038;-77
2023/11/18 10:02:50;;;;;;;1.10;0.90;;;;;;;;;;5000638;28;20084;-77
2023/11/18 10:05:20;;;;;;;0.70;0.70;;;;;;;;;;4983563;28;20038;-77
2023/11/18 10:07:49;;;;;;;1.42;1.33;;;;;;;;;;4983879;28;20039;-77
2023/11/18 10:10:16;;;;;;;4.55;1.13;;;;;;;;;;4983822;28;20019;-79
2023/11/18 10:12:57;;;;;;;0.73;0.73;;;;;;;;;;4987330;28;20114;-78
2023/11/18 10:15:24;;;;;;;1.63;1.35;;;;;;;;;;4972395;28;20026;-77
2023/11/18 10:17:59;;;;;;;1.00;0.90;;;;;;;;;;4990124;28;20034;-79
2023/11/18 10:20:46;;;;;;;1.13;1.00;;;;;;;;;;5007911;28;20077;-77
2023/11/18 10:23:18;;;;;;;0.75;0.75;;;;;;;;;;5005002;28;20461;-78
2023/11/18 10:25:49;;;;;;;1.00;0.80;;;;;;;;;;5006181;28;20022;-78
2023/11/18 10:28:28;;;;;;;0.65;0.65;;;;;;;;;;5001813;28;20049;-79
2023/11/18 10:37:17;;;;;;;0.85;0.80;;;;;;;;;;4976713;29;19913;-79
2023/11/18 10:41:01;;;;;;;0.80;0.80;;;;;;;;;;5071029;28;20387;-78
2023/11/18 10:43:30;;;;;;;0.80;0.80;;;;;;;;;;5071058;28;20029;-78
2023/11/18 10:46:15;;;;;;;0.85;0.80;;;;;;;;;;5069832;28;20055;-81
2023/11/18 10:48:48;;;;;;;0.70;0.70;;;;;;;;;;5067830;28;20473;-77
2023/11/18 10:51:19;;;;;;;1.40;1.30;;;;;;;;;;5070640;28;20350;-77
2023/11/18 10:53:53;;;;;;;1.00;0.90;;;;;;;;;;5070399;28;20067;-77
2023/11/18 10:56:29;;;;;;;2.08;1.38;;;;;;;;;;5069527;28;20021;-78
2023/11/18 10:58:58;;;;;;;1.02;0.93;;;;;;;;;;5069325;28;20073;-77
2023/11/18 11:01:28;;;;;;;0.80;0.80;;;;;;;;;;5069423;28;20360;-78
2023/11/18 11:03:57;;;;;;;0.75;0.70;;;;;;;;;;5069470;28;20107;-77
2023/11/18 11:06:30;;;;;;;0.63;0.63;;;;;;;;;;5070458;28;20025;-79
2023/11/18 11:08:58;;;;;;;;;;;;;;;;;;5069333;28;20025;-77
2023/11/18 11:11:26;;;;;;;0.80;0.80;;;;;;;;;;5070369;28;19999;-78
2023/11/18 11:14:00;;;;;;;0.70;0.70;;;;;;;;;;5069954;28;20115;-77
2023/11/18 11:16:34;;;;;;;1.25;1.10;;;;;;;;;;5070354;28;20017;-76
2023/11/18 11:19:08;;;;;;;1.30;1.02;;;;;;;;;;5068932;28;20534;-77
2023/11/18 11:21:35;;;;;;;1.00;0.90;;;;;;;;;;5069014;28;20032;-78
2023/11/18 11:24:05;;;;;;;0.70;0.68;;;;;;;;;;5068901;28;20035;-77
2023/11/18 11:26:54;;;;;;;1.25;1.15;;;;;;;;;;5068810;28;20368;-77
2023/11/18 11:29:23;;;;;;;1.10;1.00;;;;;;;;;;5068910;28;20029;-77
2023/11/18 11:31:55;;;;;;;0.85;0.80;;;;;;;;;;5068821;28;20029;-77
2023/11/18 11:34:24;;;;;;;1.50;1.07;;;;;;;;;;5070033;28;20017;-76
2023/11/18 11:36:52;;;;;;;0.85;0.80;;;;;;;;;;5068201;28;20376;-76
2023/11/18 11:39:25;;;;;;;0.90;0.80;;;;;;;;;;5069698;28;20045;-76
2023/11/18 11:41:54;;;;;;;0.80;0.70;;;;;;;;;;5068378;28;20021;-76
2023/11/18 11:44:20;;;;;;;1.13;1.02;;;;;;;;;;5069859;28;20047;-76
2023/11/18 11:46:52;;;;;;;0.80;0.80;;;;;;;;;;5068176;28;20029;-76
2023/11/18 11:49:27;;;;;;;0.90;0.80;;;;;;;;;;5069898;28;20430;-76
2023/11/18 11:52:20;;;;;;;0.65;0.65;;;;;;;;;;5041899;28;20439;-76
2023/11/18 11:54:56;;;;;;;0.80;0.70;;;;;;;;;;5055229;28;20025;-79
2023/11/18 11:57:22;;;;;;;0.90;0.82;;;;;;;;;;5055112;28;20362;-79
2023/11/18 11:59:52;;;;;;;0.80;0.77;;;;;;;;;;5056529;28;20136;-78
2023/11/18 12:02:24;;;;;;;2.65;1.40;;;;;;;;;;5054954;28;20495;-78
2023/11/18 12:04:54;;;;;;;0.70;0.70;;;;;;;;;;5056290;28;20415;-76
2023/11/18 12:07:23;;;;;;;0.63;0.63;;;;;;;;;;5054906;28;20087;-78
2023/11/18 12:09:53;;;;;;;1.20;1.00;;;;;;;;;;5054662;28;20057;-78
2023/11/18 12:12:26;;;;;;;0.80;0.70;;;;;;;;;;5054943;28;20055;-78
2023/11/18 12:14:52;;;;;;;0.80;0.75;;;;;;;;;;5056268;28;20048;-78
2023/11/18 12:17:22;;;;;;;0.80;0.80;;;;;;;;;;5054811;28;20025;-82
2023/11/18 12:19:49;;;;;;;0.82;0.80;;;;;;;;;;5056014;28;20373;-79
2023/11/18 12:22:24;;;;;;;1.02;0.93;;;;;;;;;;5054822;28;20028;-80
2023/11/18 12:25:14;;;;;;;0.70;0.70;;;;;;;;;;5055100;28;20024;-79
2023/11/18 12:27:41;;;;;;;0.95;0.80;;;;;;;;;;5054396;28;20017;-79
2023/11/18 12:30:16;;;;;;;0.80;0.80;;;;;;;;;;5054668;28;20025;-78
2023/11/18 12:33:10;;;;;;;1.48;1.00;;;;;;;;;;5055707;28;20045;-78
2023/11/18 12:35:52;;;;;;;0.85;0.80;;;;;;;;;;5055332;28;20079;-78
2023/11/18 12:38:57;;;;;;;0.80;0.75;;;;;;;;;;5054571;28;20025;-78
2023/11/18 12:41:29;;;;;;;0.70;0.70;;;;;;;;;;5045829;28;20036;-78
2023/11/18 12:44:08;;;;;;;0.77;0.75;;;;;;;;;;5054503;28;20159;-78
2023/11/18 12:46:56;;;;;;;0.60;0.60;;;;;;;;;;5055170;28;20119;-77
2023/11/18 12:49:27;;;;;;;0.85;0.80;;;;;;;;;;5054703;28;20029;-81
2023/11/18 12:52:00;;;;;;;0.70;0.70;;;;;;;;;;5054190;28;20060;-80
2023/11/18 12:54:29;;;;;;;0.60;0.60;;;;;;;;;;5053317;28;20107;-79
2023/11/18 12:56:55;;;;;;;1.48;0.88;;;;;;;;;;5048502;28;20150;-80
2023/11/18 12:59:23;;;;;;;0.98;0.88;;;;;;;;;;5053728;28;20041;-79
2023/11/18 13:01:56;;;;;;;0.95;0.85;;;;;;;;;;5052956;28;20036;-80
2023/11/18 13:04:24;;;;;;;1.00;0.90;;;;;;;;;;5052617;28;20415;-80
2023/11/18 13:06:51;;;;;;;1.00;0.90;;;;;;;;;;5053850;28;20112;-80
2023/11/18 13:09:34;;;;;;;0.77;0.70;;;;;;;;;;5053755;28;20158;-77
2023/11/18 13:12:04;;;;;;;1.00;0.80;;;;;;;;;;5055114;28;20377;-78
2023/11/18 13:14:35;;;;;;;1.20;1.10;;;;;;;;;;5053757;28;20119;-77
2023/11/18 13:17:05;;;;;;;0.70;0.70;;;;;;;;;;5054618;28;20027;-78
2023/11/18 13:19:34;;;;;;;1.10;0.80;;;;;;;;;;5050940;28;20048;-77
2023/11/18 13:22:03;;;;;;;0.90;0.80;;;;;;;;;;5053812;28;20029;-80
2023/11/18 13:24:31;;;;;;;1.17;1.00;;;;;;;;;;5052633;28;20430;-80
2023/11/18 13:26:57;;;;;;;1.10;1.00;;;;;;;;;;5055094;28;20491;-80
2023/11/18 13:29:24;;;;;;;0.70;0.70;;;;;;;;;;5053238;28;20060;-80
2023/11/18 13:31:50;;;;;;;0.82;0.73;;;;;;;;;;5051995;28;20063;-81
2023/11/18 13:34:20;;;;;;;0.80;0.77;;;;;;;;;;5051567;28;20488;-81
2023/11/18 13:36:50;;;;;;;1.05;0.95;;;;;;;;;;5053316;28;20024;-81
2023/11/18 13:39:20;;;;;;;0.70;0.70;;;;;;;;;;5053088;28;20408;-79
2023/11/18 13:41:50;;;;;;;0.85;0.80;;;;;;;;;;5053411;28;20029;-81
2023/11/18 13:44:36;;;;;;;1.33;0.85;;;;;;;;;;5053328;28;20036;-81
2023/11/18 13:47:05;;;;;;;0.68;0.68;;;;;;;;;;5052988;28;20028;-81
2023/11/18 13:49:32;;;;;;;0.88;0.80;;;;;;;;;;5053355;28;20468;-80
2023/11/18 13:51:58;;;;;;;1.23;1.00;;;;;;;;;;5051667;28;20052;-81
2023/11/18 13:54:25;;;;;;;1.05;0.95;;;;;;;;;;5050781;28;20384;-81
2023/11/18 13:56:57;;;;;;;0.95;0.85;;;;;;;;;;5050002;28;20090;-78
2023/11/18 13:59:24;;;;;;;1.17;0.90;;;;;;;;;;5052957;28;20086;-81
2023/11/18 14:01:52;;;;;;;0.63;0.63;;;;;;;;;;5053828;28;20025;-81
2023/11/18 14:04:18;;;;;;;0.88;0.80;;;;;;;;;;5052824;28;20040;-81
2023/11/18 14:06:44;;;;;;;1.00;0.80;;;;;;;;;;5053815;28;20116;-77
2023/11/18 14:09:11;;;;;;;0.70;0.70;;;;;;;;;;5054340;28;20115;-82
2023/11/18 14:11:37;;;;;;;0.82;0.80;;;;;;;;;;5057598;28;20392;-77
2023/11/18 14:14:03;;;;;;;0.75;0.75;;;;;;;;;;5063671;28;20021;-79
2023/11/18 14:16:29;;;;;;;0.93;0.88;;;;;;;;;;5064408;28;20021;-78
2023/11/18 14:18:55;;;;;;;0.73;0.70;;;;;;;;;;5065456;28;20017;-80
2023/11/18 14:21:21;;;;;;;0.82;0.80;;;;;;;;;;5064626;28;20040;-77
2023/11/18 14:23:47;;;;;;;1.10;1.00;;;;;;;;;;5061916;28;20032;-77
2023/11/18 14:26:14;;;;;;;1.02;0.90;;;;;;;;;;5050510;28;20032;-80
2023/11/18 14:28:40;;;;;;;1.48;1.20;;;;;;;;;;5035935;28;20033;-80
2023/11/18 14:31:07;;;;;;;0.80;0.80;;;;;;;;;;5053213;28;20040;-81
2023/11/18 14:33:34;;;;;;;0.70;0.70;;;;;;;;;;5052848;28;20534;-81
2023/11/18 14:36:05;;;;;;;0.70;0.70;;;;;;;;;;5051235;28;20044;-81
2023/11/18 14:38:31;;;;;;;0.80;0.70;;;;;;;;;;5052274;28;20017;-80
2023/11/18 14:40:58;;;;;;;0.77;0.77;;;;;;;;;;5032332;28;20512;-80
2023/11/18 14:43:25;;;;;;;1.30;1.10;;;;;;;;;;5050453;28;20044;-79
2023/11/18 14:45:51;;;;;;;0.73;0.70;;;;;;;;;;5052220;28;20456;-81
2023/11/18 14:48:17;;;;;;;0.90;0.80;;;;;;;;;;5052331;28;20472;-79
2023/11/18 14:50:45;;;;;;;0.77;0.75;;;;;;;;;;5051906;28;20021;-81
2023/11/18 14:53:11;;;;;;;0.82;0.73;;;;;;;;;;5051066;28;20021;-80
2023/11/18 14:55:37;;;;;;;0.65;0.63;;;;;;;;;;5051831;28;20017;-80
2023/11/18 14:58:04;;;;;;;0.80;0.70;;;;;;;;;;5049310;28;20480;-82
2023/11/18 15:00:33;;;;;;;0.82;0.80;;;;;;;;;;5051351;28;20083;-80
2023/11/18 15:02:59;;;;;;;0.77;0.77;;;;;;;;;;5047542;28;20469;-82
2023/11/18 15:05:27;;;;;;;0.63;0.63;;;;;;;;;;5051559;28;20514;-80